Time;durP1;ratioP1;P1;durP2;ratioP2;P2;SDS_P1;SDS_P2;PMS_P1;PMS_P2;Temp;Humidity;BMP_temperature;BMP_pressure;BME280_temperature;BME280_humidity;BME280_pressure;Samples;Min_cycle;Max_cycle;Signal;HPM_P1;HPM_P2
2023/04/25 00:00:46;;;;;;;12.27;5.22;;;7.00;99.90;;;6.91;100.00;99856.03;5072864;28;20036;-74
2023/04/25 00:03:12;;;;;;;15.00;5.70;;;7.00;99.90;;;6.89;100.00;99856.22;5082403;28;20024;-74
2023/04/25 00:05:38;;;;;;;14.57;5.20;;;7.00;99.90;;;6.93;100.00;99858.50;5072243;28;20483;-74
2023/04/25 00:08:05;;;;;;;12.77;5.72;;;7.00;99.90;;;6.99;100.00;99863.94;5073105;28;20048;-75
2023/04/25 00:10:31;;;;;;;13.63;5.85;;;7.00;99.90;;;6.93;100.00;99853.94;5073247;28;20048;-75
2023/04/25 00:12:57;;;;;;;12.85;5.40;;;7.00;99.90;;;6.85;100.00;99854.13;5072573;28;20044;-74
2023/04/25 00:15:24;;;;;;;12.55;5.65;;;7.00;99.90;;;6.85;100.00;99854.13;5073508;28;20391;-74
2023/04/25 00:17:52;;;;;;;17.33;5.85;;;7.00;99.90;;;6.86;100.00;99872.06;5071902;28;20128;-74
2023/04/25 00:20:18;;;;;;;15.68;5.82;;;7.00;99.90;;;6.86;100.00;99869.38;5073092;28;20052;-73
2023/04/25 00:22:44;;;;;;;15.45;5.70;;;7.00;99.90;;;6.79;100.00;99868.56;5073265;28;20034;-74
2023/04/25 00:25:09;;;;;;;16.80;6.28;;;7.00;99.90;;;6.80;100.00;99872.94;5073055;28;20035;-74
2023/04/25 00:27:36;;;;;;;12.43;5.43;;;7.00;99.90;;;6.86;100.00;99867.50;5073304;28;20052;-75
2023/04/25 00:30:03;;;;;;;13.20;5.22;;;7.00;99.90;;;6.88;100.00;99861.84;5041033;28;20124;-74
2023/04/25 00:32:29;;;;;;;14.18;5.28;;;7.10;99.90;;;6.85;100.00;99860.41;5082017;28;20048;-75
2023/04/25 00:34:55;;;;;;;12.85;5.22;;;7.10;99.90;;;6.90;100.00;99859.78;5070415;28;20040;-74
2023/04/25 00:37:21;;;;;;;12.75;5.30;;;7.10;99.90;;;6.89;100.00;99864.38;5063780;28;20029;-75
2023/04/25 00:39:47;;;;;;;14.18;5.57;;;7.10;99.90;;;6.91;100.00;99873.13;5073099;28;20037;-75
2023/04/25 00:42:13;;;;;;;11.80;5.45;;;7.10;99.90;;;6.93;100.00;99862.06;5072836;28;20032;-75
2023/04/25 00:44:40;;;;;;;12.05;5.13;;;7.20;99.90;;;6.91;100.00;99856.84;5067317;28;20098;-75
2023/04/25 00:47:07;;;;;;;17.27;5.97;;;7.20;99.90;;;6.96;100.00;99863.50;5072503;28;20044;-74
2023/04/25 00:49:32;;;;;;;11.65;5.43;;;7.20;99.90;;;6.97;100.00;99854.31;5068720;28;20035;-74
2023/04/25 00:51:59;;;;;;;16.52;4.90;;;7.20;99.90;;;7.02;100.00;99854.50;5072974;28;20459;-74
2023/04/25 00:54:25;;;;;;;15.90;4.97;;;7.20;99.90;;;7.01;100.00;99847.44;5063567;28;20657;-74
2023/04/25 00:56:51;;;;;;;15.48;4.88;;;7.20;99.90;;;6.98;100.00;99862.25;5073129;28;20032;-75
2023/04/25 00:59:19;;;;;;;12.05;4.57;;;7.20;99.90;;;6.82;100.00;99846.44;5072442;28;20082;-74
2023/04/25 01:01:45;;;;;;;16.50;6.28;;;7.20;99.90;;;6.93;100.00;99843.09;5074983;28;20044;-74
2023/04/25 01:04:11;;;;;;;16.88;5.72;;;7.20;99.90;;;6.98;100.00;99856.84;5078326;28;20033;-75
2023/04/25 01:06:37;;;;;;;11.98;5.63;;;7.20;99.90;;;6.89;100.00;99850.81;5080582;28;20102;-75
2023/04/25 01:09:04;;;;;;;13.35;5.80;;;7.20;99.90;;;6.92;100.00;99849.56;5079947;28;20060;-74
2023/04/25 01:11:30;;;;;;;13.48;5.40;;;7.20;99.90;;;6.85;100.00;99851.44;5076771;28;20038;-75
2023/04/25 01:13:55;;;;;;;14.82;5.68;;;7.20;99.90;;;6.82;100.00;99858.13;5074238;28;20033;-74
2023/04/25 01:16:23;;;;;;;13.45;5.70;;;7.20;99.90;;;6.91;100.00;99864.16;5065738;28;20107;-75
2023/04/25 01:18:51;;;;;;;11.90;5.38;;;7.20;99.90;;;6.81;100.00;99861.88;5075204;28;20079;-76
2023/04/25 01:21:17;;;;;;;15.27;6.00;;;7.10;99.90;;;6.78;100.00;99853.34;5062801;28;20403;-74
2023/04/25 01:23:44;;;;;;;13.00;5.60;;;7.10;99.90;;;6.83;100.00;99854.38;5062328;28;20044;-75
2023/04/25 01:26:11;;;;;;;13.38;5.82;;;7.10;99.90;;;6.86;100.00;99843.09;5065298;28;20060;-73
2023/04/25 01:28:41;;;;;;;13.65;5.43;;;7.10;99.90;;;6.80;100.00;99834.97;5063964;28;20024;-74
2023/04/25 01:31:07;;;;;;;12.77;6.65;;;7.10;99.90;;;6.82;100.00;99836.44;5054426;28;20108;-74
2023/04/25 01:33:34;;;;;;;19.48;6.32;;;7.10;99.90;;;6.75;100.00;99841.88;5064675;28;20044;-74
2023/04/25 01:36:00;;;;;;;14.40;5.82;;;7.10;99.90;;;6.69;100.00;99845.44;5053801;28;20056;-75
2023/04/25 01:38:26;;;;;;;11.45;6.05;;;7.10;99.90;;;6.68;100.00;99840.19;5056446;28;20354;-75
2023/04/25 01:40:55;;;;;;;12.38;6.10;;;7.10;99.90;;;6.68;100.00;99840.19;5070819;28;20048;-75
2023/04/25 01:43:21;;;;;;;17.25;6.40;;;7.10;99.90;;;6.64;100.00;99834.38;5062057;28;20025;-75
2023/04/25 01:45:48;;;;;;;14.00;6.65;;;7.10;99.90;;;6.70;100.00;99852.50;5070063;28;20400;-74
2023/04/25 01:48:14;;;;;;;15.77;6.45;;;7.10;99.90;;;6.71;100.00;99843.34;5071065;28;20029;-74
2023/04/25 01:50:43;;;;;;;11.88;6.10;;;7.10;99.90;;;6.84;100.00;99839.78;5057119;28;20462;-74
2023/04/25 01:53:14;;;;;;;15.68;6.80;;;7.10;99.90;;;6.71;100.00;99846.03;5070003;28;20113;-74
2023/04/25 01:55:42;;;;;;;14.63;6.70;;;7.10;99.90;;;6.76;100.00;99848.94;5055747;28;20044;-74
2023/04/25 01:58:12;;;;;;;13.60;6.30;;;7.10;99.90;;;6.79;100.00;99849.56;5069544;28;20025;-74
2023/04/25 02:01:00;;;;;;;;;;;7.10;99.90;;;6.84;100.00;99856.03;5053141;28;20049;-74
2023/04/25 02:03:32;;;;;;;12.85;6.53;;;7.10;99.90;;;6.81;100.00;99855.63;5069860;28;20468;-74
2023/04/25 02:05:58;;;;;;;15.15;6.45;;;7.10;99.90;;;6.76;100.00;99862.50;5056845;28;20393;-74
2023/04/25 02:08:26;;;;;;;17.92;6.85;;;7.10;99.90;;;6.81;100.00;99855.63;5066931;28;20495;-75
2023/04/25 02:10:54;;;;;;;15.13;6.95;;;7.10;99.90;;;6.88;100.00;99862.69;5066982;28;20033;-74
2023/04/25 02:13:19;;;;;;;15.50;7.10;;;7.10;99.90;;;6.85;100.00;99867.69;5058362;28;20068;-74
2023/04/25 02:16:02;;;;;;;16.65;7.15;;;7.10;99.90;;;6.85;100.00;99867.69;5057851;28;20407;-74
2023/04/25 02:18:31;;;;;;;16.48;6.95;;;7.10;99.90;;;6.84;100.00;99868.75;5054836;28;20028;-75
2023/04/25 02:21:01;;;;;;;12.57;6.93;;;7.10;99.90;;;6.88;100.00;99873.53;5054289;28;20083;-75
2023/04/25 02:23:27;;;;;;;14.23;6.45;;;7.10;99.90;;;6.63;100.00;99865.25;5071254;28;20078;-75
2023/04/25 02:25:55;;;;;;;13.77;6.82;;;7.10;99.90;;;6.74;100.00;99878.16;5054107;28;20481;-74
2023/04/25 02:28:20;;;;;;;18.55;6.75;;;7.00;99.90;;;6.61;100.00;99880.88;5052504;28;20021;-75
2023/04/25 02:30:47;;;;;;;15.75;6.97;;;7.00;99.90;;;6.57;100.00;99880.47;5058178;28;20037;-75
2023/04/25 02:33:16;;;;;;;13.65;6.78;;;6.90;99.90;;;6.60;100.00;99899.00;5054911;28;20539;-74
2023/04/25 02:35:45;;;;;;;17.88;7.95;;;6.80;99.90;;;6.44;100.00;99884.00;5070789;28;20040;-75
2023/04/25 02:38:13;;;;;;;12.85;6.25;;;6.80;99.90;;;6.31;100.00;99886.69;5024547;28;20530;-74
2023/04/25 02:40:40;;;;;;;13.98;5.55;;;6.70;99.90;;;6.18;100.00;99887.53;5069913;28;20040;-73
2023/04/25 02:43:08;;;;;;;18.02;7.32;;;6.60;99.90;;;6.03;100.00;99893.13;5052383;28;20033;-74
2023/04/25 02:45:35;;;;;;;14.50;6.13;;;6.50;99.90;;;5.97;100.00;99902.88;5052449;28;20040;-74
2023/04/25 02:48:02;;;;;;;14.90;5.40;;;6.50;99.90;;;5.90;100.00;99886.63;5053897;28;20040;-73
2023/04/25 02:50:31;;;;;;;13.68;5.35;;;6.40;99.90;;;5.86;100.00;99914.28;5066409;28;20068;-74
2023/04/25 02:52:57;;;;;;;13.80;5.75;;;6.40;99.90;;;5.98;100.00;99901.00;5054706;28;20039;-73
2023/04/25 02:55:27;;;;;;;14.18;5.43;;;6.40;99.90;;;5.94;100.00;99905.97;5051225;28;20451;-73
2023/04/25 02:57:55;;;;;;;14.75;6.40;;;6.50;99.90;;;5.90;100.00;99905.56;5068917;28;20033;-73
2023/04/25 03:00:33;;;;;;;24.80;7.72;;;6.50;99.90;;;6.04;100.00;99922.72;5066786;28;20044;-73
2023/04/25 03:02:58;;;;;;;52.38;19.98;;;6.50;99.90;;;6.08;100.00;99911.47;5070033;28;20036;-74
2023/04/25 03:05:24;;;;;;;24.98;8.93;;;6.60;99.90;;;6.06;100.00;99917.09;5043829;28;20045;-74
2023/04/25 03:07:50;;;;;;;15.35;4.85;;;6.60;99.90;;;6.02;100.00;99908.56;5056505;28;20492;-74
2023/04/25 03:10:16;;;;;;;19.55;6.13;;;6.50;99.90;;;5.92;100.00;99915.38;5077076;28;20029;-73
2023/04/25 03:12:42;;;;;;;17.58;4.40;;;6.50;99.90;;;5.92;100.00;99910.78;5073843;28;20103;-74
2023/04/25 03:15:08;;;;;;;19.23;4.78;;;6.50;99.90;;;5.97;100.00;99919.13;5061191;28;20116;-73
2023/04/25 03:17:34;;;;;;;25.98;7.68;;;6.50;99.90;;;6.06;100.00;99921.69;5056546;28;20043;-73
2023/04/25 03:20:00;;;;;;;21.33;6.30;;;6.40;99.90;;;6.00;100.00;99924.13;5074078;28;20381;-73
2023/04/25 03:22:28;;;;;;;18.35;4.60;;;6.40;99.90;;;6.00;100.00;99915.16;5072272;28;20021;-73
2023/04/25 03:24:54;;;;;;;19.60;4.70;;;6.50;99.90;;;6.19;100.00;99922.53;5071431;28;20040;-73
2023/04/25 03:27:20;;;;;;;22.95;4.63;;;6.40;99.90;;;6.04;100.00;99932.69;5069066;28;20045;-73
2023/04/25 03:29:46;;;;;;;13.07;4.00;;;6.40;99.90;;;6.01;100.00;99920.44;5069510;28;20041;-73
2023/04/25 03:32:12;;;;;;;15.05;4.20;;;6.40;99.90;;;5.95;100.00;99923.06;5056399;28;20033;-73
2023/04/25 03:34:37;;;;;;;18.20;4.78;;;6.40;99.90;;;5.90;100.00;99927.22;5061163;28;20158;-73
2023/04/25 03:37:03;;;;;;;18.45;5.07;;;6.30;99.90;;;5.85;100.00;99935.13;5062428;28;20098;-73
2023/04/25 03:39:33;;;;;;;19.95;4.85;;;6.30;99.90;;;5.85;100.00;99932.44;5071788;28;20025;-74
2023/04/25 03:41:59;;;;;;;21.75;4.70;;;6.40;99.90;;;5.96;100.00;99946.41;5060129;28;20044;-73
2023/04/25 03:44:27;;;;;;;18.60;4.57;;;6.30;99.90;;;5.95;100.00;99945.56;5068389;28;20024;-73
2023/04/25 03:46:53;;;;;;;24.63;5.15;;;6.30;99.90;;;5.89;100.00;99947.22;5062835;28;20035;-73
2023/04/25 03:49:19;;;;;;;20.63;4.45;;;6.40;99.90;;;5.93;100.00;99950.34;5070821;28;20029;-73
2023/04/25 03:51:55;;;;;;;19.88;4.07;;;6.30;99.90;;;5.88;100.00;99950.97;5057710;28;20112;-73
2023/04/25 03:54:21;;;;;;;24.85;4.30;;;6.30;99.90;;;5.78;100.00;99950.50;5054893;28;20431;-73
2023/04/25 03:56:56;;;;;;;19.88;4.35;;;6.30;99.90;;;5.86;100.00;99961.16;5055436;28;20040;-72
2023/04/25 03:59:25;;;;;;;16.95;4.13;;;6.40;99.90;;;6.04;100.00;99960.63;5058787;28;20477;-73
2023/04/25 04:01:52;;;;;;;16.45;4.30;;;6.40;99.90;;;5.92;100.00;99959.50;5054326;28;20086;-73
2023/04/25 04:04:18;;;;;;;17.27;4.25;;;6.40;99.90;;;6.02;100.00;99960.00;5070995;28;20032;-73
2023/04/25 04:06:45;;;;;;;23.23;4.47;;;6.40;99.90;;;5.91;100.00;99965.97;5071543;28;20036;-72
2023/04/25 04:09:16;;;;;;;25.25;5.22;;;6.40;99.90;;;5.96;100.00;99968.88;5071047;28;20082;-73
2023/04/25 04:11:43;;;;;;;26.97;4.67;;;6.40;99.90;;;5.93;100.00;99972.00;5071285;28;20426;-74
2023/04/25 04:14:10;;;;;;;25.20;4.10;;;6.40;99.90;;;6.01;100.00;99974.59;5071347;28;20044;-73
2023/04/25 04:16:38;;;;;;;21.90;4.38;;;6.40;99.90;;;5.93;100.00;99963.88;5052857;28;20471;-74
2023/04/25 04:19:03;;;;;;;17.25;3.67;;;6.40;99.90;;;5.86;100.00;99953.03;5067597;28;20036;-74
2023/04/25 04:21:30;;;;;;;21.65;4.18;;;6.40;99.90;;;5.99;100.00;99975.78;5038986;28;20092;-75
2023/04/25 04:23:57;;;;;;;20.63;4.20;;;6.40;99.90;;;5.99;100.00;99973.06;5058974;28;20055;-74
2023/04/25 04:26:23;;;;;;;30.77;5.13;;;6.40;99.90;;;6.01;100.00;99979.16;5059188;28;20029;-75
2023/04/25 04:28:59;;;;;;;21.77;3.97;;;6.40;99.90;;;5.89;100.00;99973.44;5075477;28;20393;-73
2023/04/25 04:31:38;;;;;;;22.85;4.13;;;6.40;99.90;;;5.89;100.00;99974.28;5058957;28;20048;-74
2023/04/25 04:34:04;;;;;;;17.05;3.58;;;6.40;99.90;;;5.97;100.00;99975.16;5060928;28;20337;-75
2023/04/25 04:36:30;;;;;;;15.77;3.97;;;6.30;99.90;;;5.92;100.00;99978.44;5053853;28;20037;-75
2023/04/25 04:38:56;;;;;;;17.17;4.43;;;6.30;99.90;;;5.86;100.00;99980.13;5071215;28;20058;-75
2023/04/25 04:41:34;;;;;;;15.40;3.85;;;6.30;99.90;;;5.92;100.00;99985.75;5053174;28;20033;-75
2023/04/25 04:44:20;;;;;;;23.05;4.40;;;6.40;99.90;;;5.90;100.00;99986.78;5059656;28;20037;-73
2023/04/25 04:47:06;;;;;;;18.85;4.03;;;6.50;99.90;;;6.11;100.00;99993.16;5056092;28;20101;-73
2023/04/25 04:49:51;;;;;;;21.48;3.95;;;6.50;99.90;;;6.03;99.90;99990.59;5071650;28;20434;-73
2023/04/25 04:52:28;;;;;;;20.45;4.10;;;6.60;99.90;;;5.89;99.20;99982.41;5070500;28;20038;-75
2023/04/25 04:55:27;;;;;;;21.05;4.38;;;6.60;99.90;;;5.90;99.86;99991.38;5055548;28;20036;-75
2023/04/25 04:58:12;;;;;;;26.08;3.92;;;6.60;99.90;;;6.08;99.25;99993.53;5049632;28;20059;-73
2023/04/25 05:00:48;;;;;;;14.15;3.53;;;6.60;99.90;;;6.19;98.48;100000.25;5055567;28;20060;-72
2023/04/25 05:03:31;;;;;;;24.33;4.55;;;6.60;99.90;;;6.13;96.71;100003.78;5055241;28;20029;-73
2023/04/25 05:06:21;;;;;;;23.35;4.28;;;6.70;99.90;;;6.35;96.64;99999.03;5055496;28;20040;-73
2023/04/25 05:09:07;;;;;;;16.90;3.35;;;6.70;99.90;;;6.26;94.23;100002.97;5072467;28;20036;-72
2023/04/25 05:11:45;;;;;;;18.27;3.95;;;6.70;99.90;;;6.23;93.32;100015.03;5042817;28;20459;-72
2023/04/25 05:14:25;;;;;;;19.40;3.97;;;6.70;99.90;;;6.22;93.75;100015.25;5054517;28;20045;-72
2023/04/25 05:17:28;;;;;;;23.77;3.70;;;6.70;99.90;;;6.43;93.33;100022.41;5071137;28;20120;-72
2023/04/25 05:20:23;;;;;;;18.83;3.78;;;6.70;99.90;;;6.19;92.19;100016.50;5075384;28;20033;-74
2023/04/25 05:23:08;;;;;;;21.80;3.47;;;6.70;99.90;;;6.15;91.20;100020.66;5071631;28;20181;-74
2023/04/25 05:25:56;;;;;;;22.30;4.25;;;6.80;99.90;;;6.28;91.67;100011.72;5067853;28;20116;-73
2023/04/25 05:28:42;;;;;;;22.77;3.65;;;6.80;99.90;;;6.23;91.93;100020.47;5071507;28;20056;-74
2023/04/25 05:31:27;;;;;;;22.00;3.88;;;6.70;99.90;;;6.28;92.38;100022.56;5066872;28;20135;-73
2023/04/25 05:34:02;;;;;;;22.15;4.32;;;6.80;99.90;;;6.46;92.25;100033.69;5060754;28;20093;-75
2023/04/25 05:36:39;;;;;;;20.45;4.20;;;6.80;99.90;;;6.41;90.66;100019.91;5055749;28;20400;-74
2023/04/25 05:39:06;;;;;;;20.98;3.55;;;6.90;99.90;;;6.38;89.24;100019.47;5053606;28;20398;-74
2023/04/25 05:41:57;;;;;;;16.70;3.03;;;7.00;99.90;;;6.55;86.49;100031.63;5063830;28;20052;-74
2023/04/25 05:44:42;;;;;;;19.58;3.50;;;7.10;99.90;;;6.79;86.65;100029.34;5070519;28;20508;-75
2023/04/25 05:47:22;;;;;;;24.33;4.68;;;7.20;99.90;;;6.76;84.95;100038.72;5043885;28;20036;-75
2023/04/25 05:50:03;;;;;;;10.43;2.53;;;7.30;99.90;;;6.55;82.88;100033.47;5064566;28;20032;-75
2023/04/25 05:53:05;;;;;;;18.63;4.15;;;7.30;99.90;;;6.70;83.94;100034.16;5066376;28;20044;-75
2023/04/25 05:55:42;;;;;;;22.83;3.50;;;7.30;99.90;;;6.87;85.37;100041.84;5068229;28;20059;-76
2023/04/25 05:58:20;;;;;;;17.13;3.13;;;7.30;99.90;;;6.98;83.68;100033.13;5069038;28;20028;-74
2023/04/25 06:00:46;;;;;;;17.13;3.03;;;7.50;99.90;;;6.95;81.85;100041.69;5069331;28;20043;-74
2023/04/25 06:03:14;;;;;;;16.65;2.90;;;7.50;99.90;;;7.19;81.97;100044.81;5075800;28;20613;-77
2023/04/25 06:05:42;;;;;;;16.25;3.33;;;7.60;99.90;;;7.16;81.61;100035.19;5057617;28;20057;-75
2023/04/25 06:08:09;;;;;;;18.30;4.60;;;7.60;99.90;;;6.96;82.58;100054.19;5058904;28;20036;-76
2023/04/25 06:10:37;;;;;;;17.38;3.35;;;7.60;99.90;;;7.53;80.55;100053.75;5075539;28;20087;-76
2023/04/25 06:13:05;;;;;;;21.33;3.35;;;7.70;99.90;;;7.36;78.62;100050.66;5079711;28;20028;-76
2023/04/25 06:15:33;;;;;;;15.32;3.33;;;7.80;99.90;;;7.26;76.52;100047.50;5064042;28;20076;-77
2023/04/25 06:18:00;;;;;;;19.60;3.15;;;7.70;99.90;;;6.95;77.15;100055.25;5079157;28;20154;-76
2023/04/25 06:20:26;;;;;;;17.42;3.45;;;7.60;99.90;;;6.62;77.76;100053.28;5064260;28;20497;-75
2023/04/25 06:22:54;;;;;;;12.57;2.95;;;7.40;99.90;;;6.98;78.72;100070.25;5046241;28;20453;-76
2023/04/25 06:25:25;;;;;;;21.38;3.35;;;7.40;99.90;;;7.07;77.55;100071.72;5062702;28;20620;-77
2023/04/25 06:27:51;;;;;;;16.77;3.40;;;7.50;99.90;;;6.75;78.16;100069.59;5052831;28;20037;-76
2023/04/25 06:30:22;;;;;;;20.33;3.90;;;7.40;99.90;;;6.73;78.38;100066.25;5068316;28;20036;-75
2023/04/25 06:32:49;;;;;;;12.43;2.75;;;7.40;99.90;;;6.72;77.61;100074.59;5050655;28;20024;-76
2023/04/25 06:35:15;;;;;;;14.32;3.13;;;7.40;99.90;;;6.87;77.76;100071.69;5064298;28;20119;-76
2023/04/25 06:37:41;;;;;;;16.55;3.58;;;7.40;99.90;;;6.97;77.45;100069.41;5073986;28;20373;-77
2023/04/25 06:40:08;;;;;;;14.93;3.40;;;7.60;99.90;;;6.99;77.28;100064.63;5056756;28;20082;-76
2023/04/25 06:42:34;;;;;;;16.17;3.17;;;7.60;99.90;;;7.30;78.00;100084.88;5054557;28;20029;-77
2023/04/25 06:45:20;;;;;;;15.80;3.22;;;7.80;99.90;;;7.74;76.46;100082.53;5054357;28;20105;-76
2023/04/25 06:47:45;;;;;;;9.77;2.40;;;8.10;99.90;;;7.49;73.14;100061.47;5053974;28;20440;-76
2023/04/25 06:50:12;;;;;;;13.13;3.55;;;8.20;99.90;;;7.10;75.83;100076.72;5066430;28;20118;-76
2023/04/25 06:52:38;;;;;;;19.13;3.30;;;7.90;99.90;;;7.36;77.18;100074.22;5058645;28;20029;-76
2023/04/25 06:55:05;;;;;;;17.10;3.63;;;8.00;99.90;;;7.45;76.02;100081.94;5056709;28;20035;-77
2023/04/25 06:57:44;;;;;;;15.90;2.65;;;8.00;99.90;;;7.16;75.30;100080.47;5073985;28;20071;-76
2023/04/25 07:00:49;;;;;;;13.90;3.00;;;7.80;99.90;;;7.17;74.47;100085.72;5067247;28;20083;-76
2023/04/25 07:03:15;;;;;;;17.85;3.47;;;8.00;99.90;;;7.65;71.45;100078.38;5037821;28;20129;-77
2023/04/25 07:05:41;;;;;;;12.30;2.40;;;8.20;99.90;;;7.15;68.89;100052.53;5068126;28;20024;-76
2023/04/25 07:08:07;;;;;;;20.55;3.45;;;8.00;99.90;;;7.43;68.29;100070.47;5050215;28;20040;-76
2023/04/25 07:10:33;;;;;;;14.43;2.72;;;8.10;99.90;;;8.16;69.25;100070.50;5060482;28;20108;-75
2023/04/25 07:12:59;;;;;;;15.40;3.50;;;8.50;99.90;;;7.82;65.88;100072.47;5069877;28;20035;-76
2023/04/25 07:15:25;;;;;;;10.90;2.83;;;8.50;99.90;;;7.69;67.56;100085.03;5056875;28;20029;-75
2023/04/25 07:17:51;;;;;;;19.63;3.63;;;8.40;99.90;;;8.19;67.97;100083.66;5077565;28;20029;-75
2023/04/25 07:20:17;;;;;;;13.90;3.03;;;8.60;99.90;;;8.68;68.47;100081.34;5060142;28;20037;-77
2023/04/25 07:22:43;;;;;;;10.90;3.45;;;9.00;99.90;;;7.87;66.94;100083.56;5069088;28;20464;-75
2023/04/25 07:25:09;;;;;;;17.58;3.35;;;8.70;99.90;;;7.59;66.28;100082.75;5058859;28;20037;-76
2023/04/25 07:27:36;;;;;;;19.52;4.78;;;8.50;99.90;;;7.80;68.02;100075.41;5064329;28;20138;-76
2023/04/25 07:30:08;;;;;;;17.05;4.22;;;8.40;99.90;;;7.78;68.34;100093.81;5051527;28;20041;-78
2023/04/25 07:32:34;;;;;;;17.13;3.53;;;8.40;99.90;;;7.34;69.39;100085.31;5053483;28;20047;-74
2023/04/25 07:35:01;;;;;;;15.98;3.58;;;8.20;99.90;;;7.57;69.69;100100.31;5059763;28;20025;-76
2023/04/25 07:37:27;;;;;;;15.70;3.25;;;8.20;99.90;;;7.32;69.45;100106.38;5059894;28;20526;-77
2023/04/25 07:40:09;;;;;;;15.02;3.55;;;8.00;99.90;;;7.18;70.84;100109.06;5056929;28;20017;-77
2023/04/25 07:42:37;;;;;;;11.30;3.50;;;7.90;99.90;;;7.25;69.37;100111.81;5051286;28;20156;-74
2023/04/25 07:45:05;;;;;;;16.17;3.35;;;7.90;99.90;;;7.26;70.73;100113.47;5050231;28;20056;-76
2023/04/25 07:47:30;;;;;;;16.50;2.97;;;7.90;99.90;;;7.30;71.26;100103.03;5051624;28;20102;-76
2023/04/25 07:49:57;;;;;;;15.73;2.88;;;8.00;99.90;;;7.04;69.20;100094.66;5060503;28;20468;-76
2023/04/25 07:52:23;;;;;;;12.43;2.55;;;7.90;99.90;;;7.31;68.16;100110.97;5070383;28;20032;-76
2023/04/25 07:54:55;;;;;;;9.27;2.40;;;8.10;99.90;;;7.25;66.66;100114.50;5057298;28;20581;-77
2023/04/25 07:57:29;;;;;;;10.52;2.40;;;8.10;99.90;;;7.34;67.16;100121.41;5055865;28;20115;-77
2023/04/25 07:59:56;;;;;;;;;;;8.00;99.90;;;7.09;66.88;100113.03;5058069;28;20485;-76
2023/04/25 08:02:22;;;;;;;12.32;2.45;;;7.90;99.90;;;7.14;66.39;100117.81;5054852;28;20008;-76
2023/04/25 08:04:49;;;;;;;12.15;2.92;;;8.00;99.90;;;7.47;65.31;100098.03;5069267;28;20124;-76
2023/04/25 08:07:16;;;;;;;11.85;2.78;;;8.20;99.90;;;7.38;64.60;100112.84;5069726;28;20043;-76
2023/04/25 08:09:49;;;;;;;11.55;2.47;;;8.20;99.90;;;7.82;64.59;100107.78;5060745;28;20489;-75
2023/04/25 08:12:22;;;;;;;15.55;3.15;;;8.30;99.90;;;7.76;62.63;100110.28;5062309;28;20040;-76
2023/04/25 08:14:49;;;;;;;14.65;2.47;;;8.50;99.90;;;8.42;62.18;100118.47;5057085;28;20546;-76
2023/04/25 08:17:15;;;;;;;11.57;2.40;;;8.80;99.90;;;7.67;60.93;100116.16;5063173;28;20040;-77
2023/04/25 08:19:41;;;;;;;12.85;2.47;;;8.70;99.90;;;7.75;61.73;100121.38;5057058;28;20119;-76
2023/04/25 08:22:14;;;;;;;13.88;2.30;;;8.50;99.90;;;7.95;61.80;100120.50;5071688;28;20094;-74
2023/04/25 08:24:50;;;;;;;10.48;2.25;;;8.70;99.90;;;8.03;57.58;100109.44;5056099;28;20032;-76
2023/04/25 08:27:18;;;;;;;8.95;2.28;;;8.90;99.90;;;8.25;58.89;100101.00;5054733;28;20412;-77
2023/04/25 08:29:44;;;;;;;9.95;2.00;;;9.00;99.90;;;8.17;58.47;100113.75;5072816;28;20029;-76
2023/04/25 08:32:09;;;;;;;10.45;2.65;;;8.90;99.90;;;8.09;59.66;100113.16;5059299;28;20035;-75
2023/04/25 08:34:42;;;;;;;10.80;2.20;;;8.90;99.90;;;8.49;61.39;100141.09;5070611;28;20165;-76
2023/04/25 08:37:09;;;;;;;16.27;2.38;;;8.90;99.90;;;8.48;60.23;100131.19;5052474;28;20111;-76
2023/04/25 08:39:45;;;;;;;13.00;2.45;;;9.10;99.90;;;8.59;59.13;100135.16;5058416;28;20040;-76
2023/04/25 08:42:36;;;;;;;11.90;2.28;;;9.20;99.90;;;9.04;57.86;100120.69;5054304;28;20071;-76
2023/04/25 08:45:03;;;;;;;14.43;2.53;;;9.50;99.90;;;9.50;55.42;100115.09;5057012;28;20048;-75
2023/04/25 08:47:34;;;;;;;12.35;1.95;;;9.80;98.80;;;9.14;54.06;100094.88;5054300;28;20041;-76
2023/04/25 08:50:03;;;;;;;12.98;2.55;;;9.90;97.70;;;9.45;53.12;100129.41;5057339;28;20442;-75
2023/04/25 08:52:37;;;;;;;9.27;2.70;;;9.90;96.90;;;8.69;54.15;100131.16;5068360;28;20127;-77
2023/04/25 08:55:06;;;;;;;12.30;2.58;;;9.60;96.50;;;9.23;55.98;100147.16;5063165;28;20071;-75
2023/04/25 08:57:34;;;;;;;7.85;2.13;;;9.70;98.80;;;8.98;52.60;100123.47;5071602;28;20079;-74
2023/04/25 09:00:01;;;;;;;10.77;2.22;;;9.80;94.60;;;9.07;53.56;100141.19;5060183;28;20055;-75
2023/04/25 09:02:28;;;;;;;9.02;2.13;;;9.70;95.80;;;9.28;54.16;100150.91;5056709;28;20033;-74
2023/04/25 09:04:55;;;;;;;6.40;2.05;;;9.90;96.60;;;8.82;52.71;100132.97;5071951;28;20040;-75
2023/04/25 09:07:21;;;;;;;9.98;2.03;;;9.60;95.00;;;9.08;52.43;100137.41;5066845;28;20025;-77
2023/04/25 09:09:47;;;;;;;6.82;1.73;;;9.60;95.30;;;8.78;53.00;100130.69;5070964;28;20491;-74
2023/04/25 09:12:19;;;;;;;7.32;1.75;;;9.60;95.00;;;8.19;54.03;100162.47;5042477;28;20033;-74
2023/04/25 09:15:10;;;;;;;10.85;1.80;;;9.10;95.70;;;7.95;53.81;100170.25;5062265;28;20369;-75
2023/04/25 09:18:01;;;;;;;9.82;2.05;;;8.80;95.90;;;7.86;55.46;100177.75;5067660;28;20032;-74
2023/04/25 09:20:43;;;;;;;11.27;2.17;;;8.60;97.00;;;8.41;55.50;100190.19;5070299;28;20407;-74
2023/04/25 09:23:08;;;;;;;11.85;1.85;;;8.90;97.70;;;7.75;54.32;100181.13;5069955;28;20031;-75
2023/04/25 09:25:39;;;;;;;5.88;1.70;;;8.70;95.70;;;8.02;54.14;100186.53;5056371;28;20041;-75
2023/04/25 09:28:06;;;;;;;7.38;1.88;;;8.70;96.00;;;8.27;53.39;100177.72;5057032;28;20025;-74
2023/04/25 09:30:35;;;;;;;5.68;1.75;;;8.80;95.30;;;9.13;52.17;100180.28;5049901;28;20033;-75
2023/04/25 09:33:14;;;;;;;10.48;1.83;;;9.40;95.50;;;9.27;51.44;100157.38;5052761;28;20033;-74
2023/04/25 09:35:45;;;;;;;5.82;1.35;;;9.80;94.10;;;8.69;50.06;100153.72;5043743;28;20056;-75
2023/04/25 09:38:24;;;;;;;10.15;1.90;;;9.60;92.10;;;9.34;50.71;100168.22;5067071;28;20032;-74
2023/04/25 09:41:00;;;;;;;9.45;1.60;;;9.80;93.60;;;9.66;48.21;100164.63;5067350;28;20060;-75
2023/04/25 09:43:39;;;;;;;6.97;1.52;;;10.10;91.70;;;9.31;48.02;100155.06;5058611;28;20041;-75
2023/04/25 09:46:10;;;;;;;5.38;1.48;;;10.10;90.60;;;9.83;47.26;100167.63;5056846;28;20029;-74
2023/04/25 09:48:40;;;;;;;8.35;1.48;;;10.20;90.70;;;9.57;45.71;100154.03;5067825;28;20051;-75
2023/04/25 09:51:15;;;;;;;10.65;2.10;;;10.20;87.50;;;9.75;45.74;100163.28;5070399;28;20095;-74
2023/04/25 09:53:46;;;;;;;6.40;1.40;;;10.30;86.90;;;9.90;44.86;100154.75;5057260;28;20117;-73
2023/04/25 09:56:19;;;;;;;5.50;1.45;;;10.50;85.50;;;10.33;44.06;100151.16;5069117;28;20036;-77
2023/04/25 09:58:53;;;;;;;5.10;1.20;;;10.80;84.80;;;10.55;42.68;100136.25;5072969;28;20029;-74
2023/04/25 10:01:21;;;;;;;5.25;1.08;;;10.90;81.30;;;10.33;41.57;100123.91;5052342;28;20116;-75
2023/04/25 10:04:04;;;;;;;5.45;1.40;;;10.90;78.80;;;10.71;41.48;100132.91;5074398;28;21048;-75
2023/04/25 10:06:53;;;;;;;4.45;1.02;;;11.20;79.60;;;10.66;42.74;100151.88;5070893;28;20076;-75
2023/04/25 10:09:24;;;;;;;10.63;1.63;;;11.60;79.30;;;11.71;40.77;100148.00;5070749;28;20044;-75
2023/04/25 10:11:50;;;;;;;3.40;0.90;;;12.50;75.30;;;12.93;39.49;100126.28;5057650;28;20028;-73
2023/04/25 10:14:18;;;;;;;6.13;1.40;;;13.60;72.70;;;12.11;39.31;100144.56;5054947;28;20047;-75
2023/04/25 10:16:45;;;;;;;3.77;1.07;;;13.50;69.60;;;11.11;41.42;100161.53;5070959;28;20387;-74
2023/04/25 10:19:11;;;;;;;9.40;1.80;;;12.30;72.20;;;11.69;40.06;100150.16;5070644;28;20357;-74
2023/04/25 10:21:48;;;;;;;6.18;1.92;;;12.50;71.40;;;10.49;40.62;100152.47;5070130;28;20048;-74
2023/04/25 10:24:15;;;;;;;4.82;1.08;;;11.90;70.30;;;10.33;41.14;100158.50;5070401;28;20112;-74
2023/04/25 10:26:41;;;;;;;4.87;1.30;;;11.50;72.30;;;10.71;42.05;100165.66;5070503;28;20036;-74
2023/04/25 10:29:06;;;;;;;5.32;1.70;;;11.50;73.90;;;9.20;44.59;100176.50;5070690;28;20440;-74
2023/04/25 10:31:32;;;;;;;7.70;1.38;;;10.40;76.60;;;9.11;45.06;100190.56;5069696;28;20139;-73
2023/04/25 10:34:01;;;;;;;3.10;1.17;;;10.00;78.50;;;8.87;44.74;100193.81;5069846;28;20040;-76